Nearby METAR Reports

 

KCMA - Camarillo, California, USA
Distance from station: WSW 4mi, 7km
Updated: Tue, 21-Nov-2017 2:55am PST
Clear
Clear
 Wind from calm
Wind: Calm
Temperature: 55°F , 13°C
Dew Point: 46°F , 8°C
Humidity: 72%
Barometer: 30.01 inHg , 1016.3 hPa
Clouds: Clear
Visibility: 10 miles , 16 km
2017/11/21 10:55 KCMA 211055Z AUTO 00000KT 10SM CLR 13/08 A3001 RMK AO2 SLP172 T01330083
KNTD - Point Mugu Nas, California, USA
Distance from station: SSW 9mi, 15km
Updated: Tue, 21-Nov-2017 2:56am PST
Clear
Clear
 Wind from SSW
Wind: SSW 6 mph , 9 km/h
Temperature: 57°F , 14°C
Dew Point: 48°F , 9°C
Humidity: 72%
Barometer: 30.02 inHg , 1016.6 hPa
Clouds: Clear
Visibility: 10 miles , 16 km
2017/11/21 10:56 KNTD 211056Z AUTO 21005KT 10SM CLR 14/09 A3002 RMK AO2 SLP167 T01390089 PWINO $
 
KOXR - Oxnard, California, USA
Distance from station: WSW 10mi, 16km
Updated: Tue, 21-Nov-2017 2:51am PST
Clear
Clear
 Wind from SSE
Wind: SSE 7 mph , 11 km/h
Temperature: 57°F , 14°C
Dew Point: 45°F , 7°C
Humidity: 63%
Barometer: 30.01 inHg , 1016.3 hPa
Clouds: Clear
Visibility: 10 miles , 16 km
2017/11/21 10:51 KOXR 211051Z AUTO 16006KT 10SM CLR 14/07 A3001 RMK AO2 SLP163 T01440067 $
KVNY - Van Nuys, California, USA
Distance from station: E 31mi, 50km
Updated: Tue, 21-Nov-2017 2:51am PST
Clear
Clear
 Wind from calm
Wind: Calm
Temperature: 61°F , 16°C
Dew Point: 37°F , 3°C
Humidity: 42%
Barometer: 30.03 inHg , 1016.9 hPa
Clouds: Clear
Visibility: 10 miles , 16 km
2017/11/21 10:51 KVNY 211051Z 00000KT 10SM CLR 16/03 A3003 RMK AO2 SLP163 T01560033
 
KWHP - La / Whiteman, California, USA
Distance from station: E 35mi, 56km
Updated: Mon, 20-Nov-2017 7:55pm PST
NOT Current
Clear
Clear
 Wind from calm
Wind: Calm
Temperature: 68°F , 20°C
Dew Point: 36°F , 2°C
Humidity: 30%
Barometer: 30.04 inHg , 1017.3 hPa
Clouds: Clear
Visibility: 10 miles , 16 km
2017/11/21 03:55 KWHP 210355Z 00000KT 10SM SKC 20/02 A3004
KSMO - Santa Monica, California, USA
Distance from station: ESE 36mi, 58km
Updated: Tue, 21-Nov-2017 2:51am PST
Clear
Clear
 Wind from calm
Wind: Calm
Temperature: 59°F , 15°C
Dew Point: 43°F , 6°C
Humidity: 55%
Barometer: 30.02 inHg , 1016.6 hPa
Clouds: Clear
Visibility: 10 miles , 16 km
2017/11/21 10:51 KSMO 211051Z AUTO 00000KT 10SM CLR 15/06 A3002 RMK AO2 SLP165 T01500061
 
KBUR - Burbank, California, USA
Distance from station: E 38mi, 61km
Updated: Tue, 21-Nov-2017 2:53am PST
Clear
Clear
 Wind from calm
Wind: Calm
Temperature: 61°F , 16°C
Dew Point: 36°F , 2°C
Humidity: 39%
Barometer: 30.03 inHg , 1016.9 hPa
Clouds: Clear
Visibility: 10 miles , 16 km
2017/11/21 10:53 KBUR 211053Z 00000KT 10SM CLR 16/02 A3003 RMK AO2 SLP157 T01560022
KSDB - Sandberg, California, USA
Distance from station: NNE 40mi, 64km
Updated: Tue, 21-Nov-2017 2:53am PST
Clear
Clear
 Wind from N
Wind: N 3 mph , 6 km/h
Temperature: 59°F , 15°C
Dew Point: 43°F , 6°C
Humidity: 55%
Barometer: 30.23 inHg , 1023.7 hPa
Clouds: Clear
Visibility: 10 miles , 16 km
2017/11/21 10:53 KSDB 211053Z AUTO 01003KT 10SM CLR 15/06 A3023 RMK AO2 SLP196 T01500056
 
KLAX - Los Angeles, California, USA
Distance from station: ESE 42mi, 68km
Updated: Tue, 21-Nov-2017 2:53am PST
Partly cloudy
Partly cloudy
 Wind from ESE
Wind: ESE 3 mph , 6 km/h
Temperature: 61°F , 16°C
Dew Point: 50°F , 10°C
Humidity: 68%
Barometer: 30.02 inHg , 1016.6 hPa
Clouds: Partly cloudy
Visibility: 10 miles , 16 km
Cloud details: Few Clouds 18000 ft
Partly cloudy 25000 ft
2017/11/21 10:53 KLAX 211053Z 12003KT 10SM FEW180 SCT250 16/10 A3002 RMK AO2 SLP165 T01610100
KCQT - Los Angeles, California, USA
Distance from station: ESE 45mi, 73km
Updated: Tue, 21-Nov-2017 2:47am PST
Clear
Clear
 Wind from calm
Wind: Calm
Temperature: 59°F , 15°C
Dew Point: 45°F , 7°C
Humidity: 59%
Barometer: 30.01 inHg , 1016.3 hPa
Clouds: Clear
Visibility: 10 miles , 16 km
2017/11/21 10:47 KCQT 211047Z AUTO 00000KT 10SM CLR 15/07 A3001 RMK AO2 SLP162 T01500072
 
KHHR - Hawthorne, California, USA
Distance from station: ESE 45mi, 73km
Updated: Tue, 21-Nov-2017 2:53am PST
Clear
Clear
 Wind from calm
Wind: Calm
Temperature: 61°F , 16°C
Dew Point: 48°F , 9°C
Humidity: 63%
Barometer: 30.03 inHg , 1016.9 hPa
Clouds: Clear
Visibility: 10 miles , 16 km
2017/11/21 10:53 KHHR 211053Z AUTO 00000KT 10SM CLR 16/09 A3003 RMK AO2 SLP166 T01560089
KSBA - Santa Barbara, California, USA
Distance from station: WNW 49mi, 79km
Updated: Tue, 21-Nov-2017 2:53am PST
Clear
Clear
 Wind from calm
Wind: Calm
Temperature: 57°F , 14°C
Dew Point: 46°F , 8°C
Humidity: 67%
Barometer: 30.01 inHg , 1016.3 hPa
Clouds: Clear
Visibility: 10 miles , 16 km
2017/11/21 10:53 KSBA 211053Z AUTO 00000KT 10SM CLR 14/08 A3001 RMK AO2 SLP161 T01440083